Time;durP1;ratioP1;P1;durP2;ratioP2;P2;SDS_P1;SDS_P2;PMS_P1;PMS_P2;Temp;Humidity;BMP_temperature;BMP_pressure;BME280_temperature;BME280_humidity;BME280_pressure;Samples;Min_cycle;Max_cycle;Signal;HPM_P1;HPM_P2
2023/08/07 00:00:43;;;;;;;1999.90;999.90;;;14.60;99.90;;;;;;5089814;28;20413;-67
2023/08/07 00:03:08;;;;;;;1999.90;999.90;;;14.60;99.90;;;;;;5079023;28;20043;-66
2023/08/07 00:05:34;;;;;;;1999.90;999.90;;;14.50;99.90;;;;;;5089218;28;20056;-66
2023/08/07 00:07:59;;;;;;;1999.90;999.90;;;14.50;99.90;;;;;;5079114;28;20047;-67
2023/08/07 00:10:26;;;;;;;1999.90;999.90;;;14.40;99.90;;;;;;5092064;28;20028;-67
2023/08/07 00:12:51;;;;;;;1999.90;999.90;;;14.40;99.90;;;;;;5087537;28;20051;-67
2023/08/07 00:15:17;;;;;;;1999.90;999.90;;;14.30;99.90;;;;;;5103928;28;20040;-67
2023/08/07 00:17:43;;;;;;;1999.90;999.90;;;14.20;99.90;;;;;;5079222;28;20113;-67
2023/08/07 00:20:09;;;;;;;1999.90;999.90;;;14.20;99.90;;;;;;5099868;28;20048;-67
2023/08/07 00:22:34;;;;;;;1999.90;999.90;;;14.10;99.90;;;;;;5084893;28;20102;-67
2023/08/07 00:25:00;;;;;;;1999.90;999.90;;;14.10;99.90;;;;;;5092130;28;20047;-66
2023/08/07 00:27:26;;;;;;;1999.90;999.90;;;14.00;99.90;;;;;;5088519;28;20038;-67
2023/08/07 00:29:51;;;;;;;1999.90;999.90;;;13.90;99.90;;;;;;5054873;28;20510;-66
2023/08/07 00:32:17;;;;;;;1999.90;999.90;;;13.90;99.90;;;;;;5087183;28;20089;-66
2023/08/07 00:34:43;;;;;;;1999.90;999.90;;;13.90;99.90;;;;;;5104558;28;20044;-66
2023/08/07 00:37:08;;;;;;;1999.90;999.90;;;13.80;99.90;;;;;;5084911;28;20130;-66
2023/08/07 00:39:34;;;;;;;1999.90;999.90;;;13.80;99.90;;;;;;5089659;28;20039;-67
2023/08/07 00:41:59;;;;;;;1999.90;999.90;;;13.80;99.90;;;;;;5069149;28;20089;-66
2023/08/07 00:44:25;;;;;;;1999.90;999.90;;;13.70;99.90;;;;;;5094944;28;20083;-66
2023/08/07 00:46:51;;;;;;;1999.90;999.90;;;13.60;99.90;;;;;;5087615;28;20047;-66
2023/08/07 00:49:18;;;;;;;1999.90;999.90;;;13.70;99.90;;;;;;5070044;28;20032;-66
2023/08/07 00:51:44;;;;;;;1999.90;999.90;;;13.60;99.90;;;;;;5088128;28;20047;-67
2023/08/07 00:54:14;;;;;;;1999.90;999.90;;;13.60;99.90;;;;;;5085153;28;20127;-66
2023/08/07 00:56:40;;;;;;;1999.90;999.90;;;13.50;99.90;;;;;;5078062;28;20635;-66
2023/08/07 00:59:06;;;;;;;1999.90;999.90;;;13.50;99.90;;;;;;5067258;28;20155;-67
2023/08/07 01:01:32;;;;;;;1999.90;999.90;;;13.50;99.90;;;;;;5084937;28;20437;-67
2023/08/07 01:03:58;;;;;;;1999.90;999.90;;;13.40;99.90;;;;;;5077140;28;20525;-66
2023/08/07 01:06:24;;;;;;;1999.90;999.90;;;13.40;99.90;;;;;;5079688;28;20192;-67
2023/08/07 01:08:50;;;;;;;1999.90;999.90;;;13.40;99.90;;;;;;5099410;28;20039;-67
2023/08/07 01:11:21;;;;;;;1999.90;999.90;;;13.40;99.90;;;;;;5086734;28;20102;-67
2023/08/07 01:14:23;;;;;;;1999.90;999.90;;;13.40;99.90;;;;;;5097613;28;20041;-67
2023/08/07 01:17:06;;;;;;;1999.90;999.90;;;13.40;99.90;;;;;;5088941;28;20044;-66
2023/08/07 01:19:33;;;;;;;1999.90;999.90;;;13.30;99.90;;;;;;5083299;28;20072;-66
2023/08/07 01:22:06;;;;;;;1999.90;999.90;;;13.30;99.90;;;;;;5073837;28;20043;-66
2023/08/07 01:24:32;;;;;;;1999.90;999.90;;;13.30;99.90;;;;;;5087025;28;20047;-67
2023/08/07 01:27:04;;;;;;;1999.90;999.90;;;13.20;99.90;;;;;;5087539;28;20480;-67
2023/08/07 01:29:39;;;;;;;1999.90;999.90;;;13.20;99.90;;;;;;5078037;28;20054;-66
2023/08/07 01:32:09;;;;;;;1999.90;999.90;;;13.20;99.90;;;;;;5071137;28;20801;-67
2023/08/07 01:34:38;;;;;;;1999.90;999.90;;;13.20;99.90;;;;;;5077928;28;20043;-66
2023/08/07 01:37:06;;;;;;;1999.90;999.90;;;13.30;99.90;;;;;;5087697;28;20055;-67
2023/08/07 01:39:32;;;;;;;1999.90;999.90;;;13.20;99.90;;;;;;5071081;28;20048;-66
2023/08/07 01:42:00;;;;;;;1999.90;999.90;;;13.20;99.90;;;;;;5080607;28;20403;-67
2023/08/07 01:44:26;;;;;;;1999.90;999.90;;;13.30;99.90;;;;;;5103425;28;20051;-67
2023/08/07 01:46:51;;;;;;;1999.90;999.90;;;13.30;99.90;;;;;;5102321;28;20048;-67
2023/08/07 01:49:17;;;;;;;1999.90;999.90;;;13.30;99.90;;;;;;5102227;28;20032;-67
2023/08/07 01:51:42;;;;;;;1999.90;999.90;;;13.30;99.90;;;;;;5079920;28;20504;-67
2023/08/07 01:54:08;;;;;;;1999.90;999.90;;;13.40;99.90;;;;;;5103422;28;20090;-67
2023/08/07 01:56:33;;;;;;;1999.90;999.90;;;13.40;99.90;;;;;;5084387;28;20048;-67
2023/08/07 01:58:59;;;;;;;1999.90;999.90;;;13.40;99.90;;;;;;5090173;28;20036;-67
2023/08/07 02:01:25;;;;;;;1999.90;999.90;;;13.40;99.90;;;;;;5097476;28;20050;-66
2023/08/07 02:03:50;;;;;;;1999.90;999.90;;;13.40;99.90;;;;;;5081835;28;20055;-67
2023/08/07 02:06:16;;;;;;;1999.90;999.90;;;13.40;99.90;;;;;;5100507;28;20056;-66
2023/08/07 02:08:41;;;;;;;1999.90;999.90;;;13.40;99.90;;;;;;5085293;28;20115;-67
2023/08/07 02:11:07;;;;;;;1999.90;999.90;;;13.30;99.90;;;;;;5084258;28;20451;-67
2023/08/07 02:13:32;;;;;;;1999.90;999.90;;;13.30;99.90;;;;;;5069606;28;20036;-67
2023/08/07 02:15:58;;;;;;;1999.90;999.90;;;13.30;99.90;;;;;;5087568;28;20088;-67
2023/08/07 02:18:24;;;;;;;1999.90;999.90;;;13.40;99.90;;;;;;5085011;28;20057;-66
2023/08/07 02:20:49;;;;;;;1999.90;999.90;;;13.30;99.90;;;;;;5069289;28;20431;-67
2023/08/07 02:23:15;;;;;;;1999.90;999.90;;;13.30;99.90;;;;;;5066438;28;20554;-67
2023/08/07 02:25:40;;;;;;;1999.90;999.90;;;13.30;99.90;;;;;;5092288;28;20028;-67
2023/08/07 02:28:06;;;;;;;1999.90;999.90;;;13.20;99.90;;;;;;5085902;28;20041;-66
2023/08/07 02:30:31;;;;;;;1999.90;999.90;;;13.30;99.90;;;;;;5075902;28;20036;-67
2023/08/07 02:32:57;;;;;;;1999.90;999.90;;;13.20;99.90;;;;;;5076729;28;20139;-67
2023/08/07 02:35:23;;;;;;;1999.90;999.90;;;13.20;99.90;;;;;;5090072;28;20097;-66
2023/08/07 02:37:48;;;;;;;1999.90;999.90;;;13.20;99.90;;;;;;5093650;28;20055;-66
2023/08/07 02:40:15;;;;;;;1999.90;999.90;;;13.20;99.90;;;;;;5070905;28;20448;-67
2023/08/07 02:42:42;;;;;;;1999.90;999.90;;;13.30;99.90;;;;;;5083870;28;20127;-67
2023/08/07 02:45:08;;;;;;;1999.90;999.90;;;13.30;99.90;;;;;;5086032;28;20484;-67
2023/08/07 02:47:33;;;;;;;1999.90;999.90;;;13.30;99.90;;;;;;5068159;28;20044;-67
2023/08/07 02:49:59;;;;;;;1999.90;999.90;;;13.40;99.90;;;;;;5082950;28;20297;-67
2023/08/07 02:52:25;;;;;;;1999.90;999.90;;;13.40;99.90;;;;;;5085335;28;20032;-67
2023/08/07 02:54:50;;;;;;;1999.90;999.90;;;13.50;99.90;;;;;;5082818;28;20295;-66
2023/08/07 02:57:16;;;;;;;1999.90;999.90;;;13.50;99.90;;;;;;5085210;28;20500;-67
2023/08/07 02:59:41;;;;;;;1999.90;999.90;;;13.60;99.90;;;;;;5070295;28;20047;-67
2023/08/07 03:02:07;;;;;;;1999.90;999.90;;;13.80;99.90;;;;;;5083335;28;21292;-67
2023/08/07 03:04:33;;;;;;;1999.90;999.90;;;13.80;99.90;;;;;;5074463;28;20048;-67
2023/08/07 03:06:59;;;;;;;1999.90;999.90;;;13.90;99.90;;;;;;5103354;28;20122;-67
2023/08/07 03:09:25;;;;;;;1999.90;999.90;;;13.90;99.90;;;;;;5075358;28;20177;-67
2023/08/07 03:11:50;;;;;;;1999.90;999.90;;;14.00;99.90;;;;;;5079746;28;20039;-67
2023/08/07 03:14:16;;;;;;;1999.90;999.90;;;14.00;99.90;;;;;;5084207;28;20089;-67
2023/08/07 03:16:41;;;;;;;1999.90;999.90;;;14.00;99.90;;;;;;5077045;28;20043;-66
2023/08/07 03:19:07;;;;;;;1999.90;999.90;;;14.00;99.90;;;;;;5084683;28;20032;-67
2023/08/07 03:21:33;;;;;;;1999.90;999.90;;;14.10;99.90;;;;;;5073495;28;20165;-66
2023/08/07 03:23:58;;;;;;;1999.90;999.90;;;14.00;99.90;;;;;;5068458;28;20040;-67
2023/08/07 03:26:24;;;;;;;1999.90;999.90;;;14.10;99.90;;;;;;5087440;28;20051;-66
2023/08/07 03:28:50;;;;;;;1999.90;999.90;;;14.00;99.90;;;;;;5092429;28;20493;-67
2023/08/07 03:31:16;;;;;;;1999.90;999.90;;;14.00;99.90;;;;;;5087081;28;20072;-67
2023/08/07 03:33:42;;;;;;;1999.90;999.90;;;14.00;99.90;;;;;;5085011;28;20124;-67
2023/08/07 03:36:09;;;;;;;1999.90;999.90;;;14.10;99.90;;;;;;5087233;28;20119;-67
2023/08/07 03:38:34;;;;;;;1999.90;999.90;;;14.10;99.90;;;;;;5083429;28;20047;-67
2023/08/07 03:41:00;;;;;;;1999.90;999.90;;;14.20;99.90;;;;;;5099062;28;20052;-67
2023/08/07 03:43:25;;;;;;;1999.90;999.90;;;14.20;99.90;;;;;;5067337;28;20043;-68
2023/08/07 03:45:56;;;;;;;1999.90;999.90;;;14.20;99.90;;;;;;5087844;28;20068;-67
2023/08/07 03:48:22;;;;;;;1999.90;999.90;;;14.20;99.90;;;;;;5083452;28;20077;-68
2023/08/07 03:50:47;;;;;;;1999.90;999.90;;;14.20;99.90;;;;;;5076216;28;20579;-67
2023/08/07 03:53:13;;;;;;;1999.90;999.90;;;14.20;99.90;;;;;;5079947;28;20120;-67
2023/08/07 03:55:39;;;;;;;1999.90;999.90;;;14.30;99.90;;;;;;5085752;28;20040;-67
2023/08/07 03:58:04;;;;;;;1999.90;999.90;;;14.30;99.90;;;;;;5088009;28;20116;-67
2023/08/07 04:00:30;;;;;;;1999.90;999.90;;;14.20;99.90;;;;;;5069424;28;20357;-67
2023/08/07 04:02:56;;;;;;;1999.90;999.90;;;14.20;99.90;;;;;;5098957;28;20059;-67
2023/08/07 04:05:22;;;;;;;1999.90;999.90;;;14.20;99.90;;;;;;5081521;28;20466;-67
2023/08/07 04:07:47;;;;;;;1999.90;999.90;;;14.20;99.90;;;;;;5096268;28;20051;-67
2023/08/07 04:10:13;;;;;;;1999.90;999.90;;;14.20;99.90;;;;;;5083135;28;20444;-67
2023/08/07 04:12:38;;;;;;;1999.90;999.90;;;14.20;99.90;;;;;;5075781;28;20027;-67
2023/08/07 04:15:05;;;;;;;1999.90;999.90;;;14.20;99.90;;;;;;5087757;28;20207;-67
2023/08/07 04:17:30;;;;;;;1999.90;999.90;;;14.20;99.90;;;;;;5073188;28;20071;-67
2023/08/07 04:19:56;;;;;;;1999.90;999.90;;;14.20;99.90;;;;;;5068165;28;20194;-67
2023/08/07 04:22:22;;;;;;;1999.90;999.90;;;14.20;99.90;;;;;;5080401;28;20032;-67
2023/08/07 04:24:47;;;;;;;1999.90;999.90;;;14.20;99.90;;;;;;5078423;28;22079;-67
2023/08/07 04:27:13;;;;;;;1999.90;999.90;;;14.20;99.90;;;;;;5062582;28;20036;-67
2023/08/07 04:29:38;;;;;;;1999.90;999.90;;;14.20;99.90;;;;;;5088901;28;20048;-67
2023/08/07 04:32:05;;;;;;;1999.90;999.90;;;14.20;99.90;;;;;;5087633;28;20093;-67
2023/08/07 04:34:30;;;;;;;1999.90;999.90;;;14.10;99.90;;;;;;5090449;28;20040;-67
2023/08/07 04:36:56;;;;;;;1999.90;999.90;;;14.10;99.90;;;;;;5090460;28;20042;-67
2023/08/07 04:39:22;;;;;;;1999.90;999.90;;;14.10;99.90;;;;;;5084555;28;20518;-67
2023/08/07 04:41:49;;;;;;;1999.90;999.90;;;14.10;99.90;;;;;;5091200;28;20079;-67
2023/08/07 04:44:16;;;;;;;1999.90;999.90;;;14.20;99.90;;;;;;5085597;28;20051;-67
2023/08/07 04:46:41;;;;;;;1999.90;999.90;;;14.30;99.90;;;;;;5071153;28;20451;-68
2023/08/07 04:49:07;;;;;;;1999.90;999.90;;;14.30;99.90;;;;;;5084891;28;20043;-67
2023/08/07 04:51:33;;;;;;;1999.90;999.90;;;14.30;99.90;;;;;;5103819;28;20507;-67
2023/08/07 04:53:58;;;;;;;1999.90;999.90;;;14.20;99.90;;;;;;5097391;28;20468;-67
2023/08/07 04:56:24;;;;;;;1999.90;999.90;;;14.30;99.90;;;;;;5052842;28;20071;-67
2023/08/07 04:58:50;;;;;;;1999.90;999.90;;;14.30;99.90;;;;;;5103046;27;20524;-67
2023/08/07 05:01:15;;;;;;;1999.90;999.90;;;14.30;99.90;;;;;;5095913;28;20051;-67
2023/08/07 05:03:41;;;;;;;1999.90;999.90;;;14.40;99.90;;;;;;5089124;28;20039;-67
2023/08/07 05:06:06;;;;;;;1999.90;999.90;;;14.40;99.90;;;;;;5079671;28;20056;-67
2023/08/07 05:08:32;;;;;;;1999.90;999.90;;;14.40;99.90;;;;;;5085107;28;20044;-67
2023/08/07 05:10:58;;;;;;;1999.90;999.90;;;14.40;99.90;;;;;;5095612;28;20104;-68
2023/08/07 05:13:23;;;;;;;1999.90;999.90;;;14.50;99.90;;;;;;5097726;28;20036;-68
2023/08/07 05:15:49;;;;;;;1999.90;999.90;;;14.50;99.90;;;;;;5058758;28;20070;-68
2023/08/07 05:18:15;;;;;;;1999.90;999.90;;;14.50;99.90;;;;;;5082741;28;20036;-69
2023/08/07 05:20:41;;;;;;;1999.90;999.90;;;14.50;99.90;;;;;;5086827;28;20119;-68
2023/08/07 05:23:06;;;;;;;1999.90;999.90;;;14.40;99.90;;;;;;5085628;28;20158;-69
2023/08/07 05:25:32;;;;;;;1999.90;999.90;;;14.40;99.90;;;;;;5099303;27;20165;-68
2023/08/07 05:27:58;;;;;;;1999.90;999.90;;;14.40;99.90;;;;;;5087959;28;20044;-67
2023/08/07 05:30:23;;;;;;;1999.90;999.90;;;14.30;99.90;;;;;;5087701;28;20093;-67
2023/08/07 05:32:49;;;;;;;1999.90;999.90;;;14.20;99.90;;;;;;5098350;28;20504;-68
2023/08/07 05:35:14;;;;;;;1999.90;999.90;;;14.10;99.90;;;;;;5063156;28;20164;-67
2023/08/07 05:37:40;;;;;;;1999.90;999.90;;;14.30;99.90;;;;;;5083455;28;20043;-68
2023/08/07 05:40:06;;;;;;;1999.90;999.90;;;14.30;99.90;;;;;;5066625;28;20044;-67
2023/08/07 05:42:34;;;;;;;1999.90;999.90;;;14.30;99.90;;;;;;5087445;28;20039;-67
2023/08/07 05:44:59;;;;;;;1999.90;999.90;;;14.30;99.90;;;;;;5087243;28;20048;-67
2023/08/07 05:47:25;;;;;;;1999.90;999.90;;;14.30;99.90;;;;;;5102765;28;20350;-68
2023/08/07 05:49:51;;;;;;;1999.90;999.90;;;14.40;99.90;;;;;;5084346;28;20070;-67
2023/08/07 05:52:17;;;;;;;1999.90;999.90;;;14.50;99.90;;;;;;5086977;28;20035;-68
2023/08/07 05:54:43;;;;;;;1999.90;999.90;;;14.50;99.90;;;;;;5086623;28;20071;-68
2023/08/07 05:57:09;;;;;;;1999.90;999.90;;;14.50;99.90;;;;;;5074148;28;20134;-67
2023/08/07 05:59:35;;;;;;;1999.90;999.90;;;14.50;99.90;;;;;;5086796;28;20055;-67
2023/08/07 06:02:02;;;;;;;1999.90;999.90;;;14.40;99.90;;;;;;5083948;28;20123;-68
2023/08/07 06:04:27;;;;;;;1999.90;999.90;;;14.50;99.90;;;;;;5076779;28;20118;-68
2023/08/07 06:06:53;;;;;;;1999.90;999.90;;;14.50;99.90;;;;;;5065076;28;20044;-67
2023/08/07 06:09:20;;;;;;;1999.90;999.90;;;14.50;99.90;;;;;;5064680;28;20028;-68
2023/08/07 06:11:45;;;;;;;1999.90;999.90;;;14.50;99.90;;;;;;5079718;28;20047;-67
2023/08/07 06:14:11;;;;;;;1999.90;999.90;;;14.50;99.90;;;;;;5083288;28;20579;-68
2023/08/07 06:16:37;;;;;;;1999.90;999.90;;;14.50;99.90;;;;;;5088413;28;20036;-68
2023/08/07 06:19:03;;;;;;;1999.90;999.90;;;14.50;99.90;;;;;;5069645;28;20127;-67
2023/08/07 06:21:29;;;;;;;1999.90;999.90;;;14.50;99.90;;;;;;5093317;28;20050;-68
2023/08/07 06:23:55;;;;;;;1999.90;999.90;;;14.50;99.90;;;;;;5086439;28;20479;-68
2023/08/07 06:26:20;;;;;;;1999.90;999.90;;;14.60;99.90;;;;;;5082803;28;20071;-67
2023/08/07 06:28:46;;;;;;;1999.90;999.90;;;14.70;99.90;;;;;;5082005;28;20508;-67
2023/08/07 06:31:12;;;;;;;1999.90;999.90;;;14.70;99.90;;;;;;5067069;28;20043;-67
2023/08/07 06:33:38;;;;;;;1999.90;999.90;;;14.80;99.90;;;;;;5082272;28;20078;-67
2023/08/07 06:36:04;;;;;;;1999.90;999.90;;;15.00;99.90;;;;;;5084815;28;20122;-70
2023/08/07 06:38:31;;;;;;;1999.90;999.90;;;15.20;99.90;;;;;;5086204;28;20412;-67
2023/08/07 06:40:57;;;;;;;1999.90;999.90;;;15.60;99.90;;;;;;5069161;28;20496;-67
2023/08/07 06:43:22;;;;;;;1999.90;999.90;;;15.60;99.90;;;;;;5081140;28;20081;-67
2023/08/07 06:45:55;;;;;;;1999.90;999.90;;;15.60;99.90;;;;;;5073529;28;20102;-68
2023/08/07 06:48:21;;;;;;;1999.90;999.90;;;15.50;99.90;;;;;;5075291;28;20381;-68
2023/08/07 06:50:48;;;;;;;1999.90;999.90;;;15.50;99.90;;;;;;5078853;28;20050;-67
2023/08/07 06:53:14;;;;;;;1999.90;999.90;;;15.40;99.90;;;;;;5084635;28;20443;-67
2023/08/07 06:55:41;;;;;;;1999.90;999.90;;;15.30;99.90;;;;;;5064433;28;20039;-67
2023/08/07 06:58:07;;;;;;;1999.90;999.90;;;15.30;99.90;;;;;;5082007;28;20044;-67
2023/08/07 07:00:35;;;;;;;1999.90;999.90;;;15.20;99.90;;;;;;5059973;28;20124;-67
2023/08/07 07:03:01;;;;;;;1999.90;999.90;;;15.30;99.90;;;;;;5090122;28;20044;-66
2023/08/07 07:05:27;;;;;;;1999.90;999.90;;;15.30;99.90;;;;;;5082676;28;20044;-67
2023/08/07 07:07:52;;;;;;;1999.90;999.90;;;15.30;99.90;;;;;;5098982;28;20051;-67
2023/08/07 07:10:18;;;;;;;1999.90;999.90;;;15.30;99.90;;;;;;5083860;28;20126;-68
2023/08/07 07:12:43;;;;;;;1999.90;999.90;;;15.20;99.90;;;;;;5096087;28;20584;-67
2023/08/07 07:15:09;;;;;;;1999.90;999.90;;;15.00;99.90;;;;;;5080558;28;20076;-67
2023/08/07 07:17:35;;;;;;;1999.90;999.90;;;14.90;99.90;;;;;;5095538;28;20122;-68
2023/08/07 07:20:01;;;;;;;1999.90;999.90;;;14.80;99.90;;;;;;5083792;28;20043;-67
2023/08/07 07:22:28;;;;;;;1999.90;999.90;;;14.90;99.90;;;;;;5098712;28;20457;-68
2023/08/07 07:24:54;;;;;;;1999.90;999.90;;;14.90;99.90;;;;;;5085276;28;20118;-67
2023/08/07 07:27:19;;;;;;;1999.90;999.90;;;14.90;99.90;;;;;;5068562;28;20111;-68
2023/08/07 07:29:45;;;;;;;1999.90;999.90;;;14.80;99.90;;;;;;5083062;28;20068;-67
2023/08/07 07:32:11;;;;;;;1999.90;999.90;;;14.70;99.90;;;;;;5085621;28;20063;-68
2023/08/07 07:34:36;;;;;;;1999.90;999.90;;;14.60;99.90;;;;;;5091114;28;20122;-68
2023/08/07 07:37:02;;;;;;;1999.90;999.90;;;14.60;99.90;;;;;;5082053;28;20040;-68
2023/08/07 07:39:27;;;;;;;1999.90;999.90;;;14.50;99.90;;;;;;5076556;28;20040;-68
2023/08/07 07:41:53;;;;;;;1999.90;999.90;;;14.60;99.90;;;;;;5086610;28;20040;-67
2023/08/07 07:44:19;;;;;;;1999.90;999.90;;;14.60;99.90;;;;;;5087008;28;20043;-68
2023/08/07 07:46:44;;;;;;;1999.90;999.90;;;14.60;99.90;;;;;;5068564;28;20494;-67
2023/08/07 07:49:10;;;;;;;1999.90;999.90;;;14.60;99.90;;;;;;5089490;28;20082;-67
2023/08/07 07:51:37;;;;;;;1999.90;999.90;;;14.70;99.90;;;;;;5090350;28;20387;-67
2023/08/07 07:54:02;;;;;;;1999.90;999.90;;;14.70;99.90;;;;;;5054858;28;20043;-68
2023/08/07 07:56:28;;;;;;;1999.90;999.90;;;14.60;99.90;;;;;;5084528;28;20047;-67
2023/08/07 07:58:53;;;;;;;1999.90;999.90;;;14.50;99.90;;;;;;5069735;28;20048;-68
2023/08/07 08:01:19;;;;;;;1999.90;999.90;;;14.30;99.90;;;;;;5072980;28;20047;-68
2023/08/07 08:03:45;;;;;;;1999.90;999.90;;;14.10;99.90;;;;;;5082709;28;20048;-68
2023/08/07 08:06:13;;;;;;;1999.90;999.90;;;14.20;99.90;;;;;;5100389;28;20059;-68
2023/08/07 08:08:39;;;;;;;1999.90;999.90;;;14.20;99.90;;;;;;5084804;28;20085;-67
2023/08/07 08:11:05;;;;;;;1999.90;999.90;;;14.10;99.90;;;;;;5068363;28;20158;-68
2023/08/07 08:13:30;;;;;;;1999.90;999.90;;;14.00;99.90;;;;;;5096990;28;20443;-69
2023/08/07 08:15:56;;;;;;;1999.90;999.90;;;13.90;99.90;;;;;;5089291;28;20504;-69
2023/08/07 08:18:22;;;;;;;1999.90;999.90;;;13.90;99.90;;;;;;5077565;28;20141;-68
2023/08/07 08:20:47;;;;;;;1999.90;999.90;;;14.00;99.90;;;;;;5089481;28;20052;-68
2023/08/07 08:23:13;;;;;;;1999.90;999.90;;;14.20;99.90;;;;;;5084766;28;20040;-69
2023/08/07 08:25:38;;;;;;;1999.90;999.90;;;14.30;99.90;;;;;;5084434;28;20125;-69
2023/08/07 08:28:04;;;;;;;1999.90;999.90;;;14.50;99.90;;;;;;5082031;28;20044;-68
2023/08/07 08:30:30;;;;;;;1999.90;999.90;;;14.60;99.90;;;;;;5079425;28;20052;-68
2023/08/07 08:32:56;;;;;;;1999.90;999.90;;;14.80;99.90;;;;;;5076271;28;20094;-68
2023/08/07 08:35:21;;;;;;;1999.90;999.90;;;15.00;99.90;;;;;;5077358;28;20048;-68
2023/08/07 08:37:47;;;;;;;1999.90;999.90;;;15.10;99.90;;;;;;5097184;28;20178;-68
2023/08/07 08:40:16;;;;;;;1999.90;999.90;;;15.20;99.90;;;;;;5091061;28;20092;-68
2023/08/07 08:42:44;;;;;;;1999.90;999.90;;;15.40;99.90;;;;;;5090458;28;20040;-68
2023/08/07 08:45:13;;;;;;;1999.90;999.90;;;15.60;99.90;;;;;;5079747;28;20495;-68
2023/08/07 08:47:40;;;;;;;1999.90;999.90;;;15.80;99.90;;;;;;5091866;28;20036;-67
2023/08/07 08:50:11;;;;;;;1999.90;999.90;;;16.30;99.90;;;;;;5098241;27;20396;-68
2023/08/07 08:52:42;;;;;;;1999.90;999.90;;;16.60;99.90;;;;;;5076139;28;20036;-67
2023/08/07 08:55:08;;;;;;;1999.90;999.90;;;17.00;99.90;;;;;;5083650;28;20123;-68
2023/08/07 08:57:35;;;;;;;1999.90;999.90;;;16.90;99.90;;;;;;5083308;28;20044;-67
2023/08/07 09:00:04;;;;;;;1999.90;999.90;;;17.00;99.90;;;;;;5086712;28;20408;-67
2023/08/07 09:02:30;;;;;;;1999.90;999.90;;;17.40;99.90;;;;;;5088963;28;20047;-69
2023/08/07 09:04:55;;;;;;;1999.90;999.90;;;17.80;99.90;;;;;;5087633;28;20083;-68
2023/08/07 09:07:22;;;;;;;1999.90;999.90;;;17.90;99.90;;;;;;5087167;28;20105;-67
2023/08/07 09:09:49;;;;;;;1999.90;999.90;;;18.20;99.90;;;;;;5082922;28;20040;-67
2023/08/07 09:12:23;;;;;;;1999.90;999.90;;;18.50;99.90;;;;;;5087999;28;20575;-67
2023/08/07 09:14:54;;;;;;;1999.90;999.90;;;18.60;99.90;;;;;;5076480;28;20113;-68
2023/08/07 09:17:29;;;;;;;1999.90;999.90;;;18.50;99.90;;;;;;5084612;28;20147;-68
2023/08/07 09:19:55;;;;;;;1999.90;999.90;;;18.60;99.90;;;;;;5084816;28;20531;-67
2023/08/07 09:22:21;;;;;;;1999.90;999.90;;;18.70;99.90;;;;;;5085010;28;20131;-68
2023/08/07 09:24:47;;;;;;;1999.90;999.90;;;19.00;99.90;;;;;;5087876;28;20571;-67
2023/08/07 09:27:13;;;;;;;1999.90;999.90;;;18.80;99.90;;;;;;5068587;28;20500;-68
2023/08/07 09:29:44;;;;;;;1999.90;999.90;;;18.30;99.90;;;;;;5088131;28;20866;-68
2023/08/07 09:32:12;;;;;;;1999.90;999.90;;;17.70;99.90;;;;;;5084566;28;20031;-68
2023/08/07 09:34:42;;;;;;;1999.90;999.90;;;17.20;99.90;;;;;;5090446;28;20047;-67
2023/08/07 09:37:08;;;;;;;1999.90;999.90;;;16.90;99.90;;;;;;5087377;28;20105;-67
2023/08/07 09:39:35;;;;;;;1999.90;999.90;;;17.20;99.90;;;;;;5078271;28;20403;-67
2023/08/07 09:42:02;;;;;;;1999.90;999.90;;;17.30;99.90;;;;;;5087494;28;20279;-67
2023/08/07 09:44:38;;;;;;;1999.90;999.90;;;17.50;99.90;;;;;;5081821;28;20146;-68
2023/08/07 09:47:19;;;;;;;1999.90;999.90;;;18.00;99.90;;;;;;5078251;28;20496;-68
2023/08/07 09:49:45;;;;;;;1999.90;999.90;;;18.50;99.90;;;;;;5083671;28;20438;-67
2023/08/07 09:52:14;;;;;;;1999.90;999.90;;;18.50;99.90;;;;;;5087660;28;20040;-68
2023/08/07 09:54:39;;;;;;;1999.90;999.90;;;18.10;99.90;;;;;;5084231;28;20553;-67
2023/08/07 09:57:05;;;;;;;1999.90;999.90;;;17.60;99.90;;;;;;5096025;28;20048;-68
2023/08/07 09:59:34;;;;;;;1999.90;999.90;;;17.30;99.90;;;;;;5078414;28;20032;-67
2023/08/07 10:02:04;;;;;;;1999.90;999.90;;;17.10;99.90;;;;;;5081753;28;20048;-67
2023/08/07 10:04:30;;;;;;;1999.90;999.90;;;17.10;99.90;;;;;;5089186;28;20077;-67
2023/08/07 10:06:57;;;;;;;1999.90;999.90;;;17.10;99.90;;;;;;5090067;28;20450;-67
2023/08/07 10:09:23;;;;;;;1999.90;999.90;;;17.20;99.90;;;;;;5079137;28;20044;-67
2023/08/07 10:11:50;;;;;;;1999.90;999.90;;;17.40;99.90;;;;;;5056527;28;20082;-68
2023/08/07 10:14:17;;;;;;;1999.90;999.90;;;17.50;99.90;;;;;;5088405;28;20036;-67
2023/08/07 10:16:44;;;;;;;1999.90;999.90;;;17.40;99.90;;;;;;5087384;28;20456;-67
2023/08/07 10:19:10;;;;;;;1999.90;999.90;;;17.20;99.90;;;;;;5079628;28;20047;-67
2023/08/07 10:21:37;;;;;;;1999.90;999.90;;;17.60;99.90;;;;;;5069582;28;20085;-67
2023/08/07 10:24:04;;;;;;;1999.90;999.90;;;17.90;99.90;;;;;;5061824;28;20123;-67
2023/08/07 10:26:34;;;;;;;1999.90;999.90;;;17.80;99.90;;;;;;5079531;28;20120;-67
2023/08/07 10:29:02;;;;;;;1999.90;999.90;;;17.80;99.90;;;;;;5069714;28;20051;-67
2023/08/07 10:31:30;;;;;;;1999.90;999.90;;;17.70;99.90;;;;;;5087019;28;20043;-67
2023/08/07 10:33:55;;;;;;;1999.90;999.90;;;17.70;99.90;;;;;;5082122;28;20106;-67
2023/08/07 10:36:21;;;;;;;1999.90;999.90;;;17.60;99.90;;;;;;5082089;28;20055;-68
2023/08/07 10:38:51;;;;;;;1999.90;999.90;;;17.80;99.90;;;;;;5069057;28;20051;-67
2023/08/07 10:41:18;;;;;;;1999.90;999.90;;;18.00;99.90;;;;;;5088133;28;20055;-67
2023/08/07 10:43:45;;;;;;;1999.90;999.90;;;18.30;99.90;;;;;;5074517;28;20089;-67
2023/08/07 10:46:11;;;;;;;1999.90;999.90;;;18.60;99.90;;;;;;5086602;28;20048;-67
2023/08/07 10:48:41;;;;;;;1999.90;999.90;;;18.80;99.90;;;;;;5097488;28;20038;-67
2023/08/07 10:51:07;;;;;;;1999.90;999.90;;;19.00;99.90;;;;;;5094881;28;20074;-67
2023/08/07 10:53:44;;;;;;;342.52;326.65;;;19.10;99.90;;;;;;5066840;28;20663;-66
2023/08/07 10:56:14;;;;;;;1999.90;999.90;;;19.20;99.90;;;;;;5083225;28;20491;-67
2023/08/07 10:58:41;;;;;;;1154.88;647.83;;;19.00;99.90;;;;;;5081251;28;20054;-67
2023/08/07 11:01:21;;;;;;;292.92;279.35;;;19.10;99.90;;;;;;5089893;28;20051;-68
2023/08/07 11:03:58;;;;;;;254.10;243.23;;;19.20;99.90;;;;;;5079032;28;20055;-67
2023/08/07 11:06:27;;;;;;;224.48;214.77;;;19.10;99.90;;;;;;5076726;28;20508;-67
2023/08/07 11:08:53;;;;;;;315.95;299.83;;;19.00;99.90;;;;;;5067295;28;20032;-67
2023/08/07 11:11:19;;;;;;;1999.90;999.90;;;18.90;99.90;;;;;;5082300;28;20048;-67
2023/08/07 11:13:44;;;;;;;207.40;198.75;;;18.80;99.90;;;;;;5091135;28;20040;-67
2023/08/07 11:16:12;;;;;;;234.98;224.65;;;18.80;99.90;;;;;;5072186;28;20044;-67
2023/08/07 11:18:41;;;;;;;278.38;266.00;;;18.70;99.90;;;;;;5061316;28;20400;-67
2023/08/07 11:21:11;;;;;;;341.40;325.63;;;18.50;99.90;;;;;;5100223;28;20048;-68
2023/08/07 11:23:38;;;;;;;1999.90;999.90;;;18.20;99.90;;;;;;5085723;28;20039;-67
2023/08/07 11:26:03;;;;;;;1999.90;999.90;;;18.00;99.90;;;;;;5087016;28;20048;-67
2023/08/07 11:28:29;;;;;;;1999.90;999.90;;;18.00;99.90;;;;;;5069210;28;20047;-67
2023/08/07 11:30:56;;;;;;;1999.90;999.90;;;18.00;99.90;;;;;;5086477;28;20082;-67
2023/08/07 11:33:23;;;;;;;1999.90;999.90;;;18.10;99.90;;;;;;5067007;28;20454;-68
2023/08/07 11:35:50;;;;;;;1999.90;999.90;;;18.20;99.90;;;;;;5079863;28;20054;-68
2023/08/07 11:38:34;;;;;;;1999.90;999.90;;;18.20;99.90;;;;;;5074001;28;20098;-67
2023/08/07 11:41:02;;;;;;;1999.90;999.90;;;18.30;99.90;;;;;;5082357;28;20169;-67
2023/08/07 11:43:29;;;;;;;1999.90;999.90;;;18.40;99.90;;;;;;5086403;28;20039;-67
2023/08/07 11:45:56;;;;;;;1999.90;999.90;;;18.30;99.90;;;;;;5077518;28;20044;-67
2023/08/07 11:48:25;;;;;;;1999.90;999.90;;;18.20;99.90;;;;;;5086684;28;20075;-67
2023/08/07 11:50:51;;;;;;;1999.90;999.90;;;18.10;99.90;;;;;;5089774;28;20119;-68
2023/08/07 11:53:17;;;;;;;1999.90;999.90;;;18.10;99.90;;;;;;5094608;28;20450;-67
2023/08/07 11:55:55;;;;;;;1999.90;999.90;;;18.10;99.90;;;;;;5088888;28;20145;-67